createdAt,value
2022-10-29T00:02:05.139Z,100
2022-10-29T00:04:31.295Z,100
2022-10-29T00:06:57.346Z,100
2022-10-29T00:09:23.421Z,100
2022-10-29T00:11:49.550Z,100
2022-10-29T00:14:14.630Z,100
2022-10-29T00:16:40.802Z,100
2022-10-29T00:19:06.842Z,100
2022-10-29T00:21:32.931Z,100
2022-10-29T00:23:59.025Z,100
2022-10-29T00:26:25.104Z,100
2022-10-29T00:28:51.215Z,100
2022-10-29T00:31:17.399Z,100
2022-10-29T00:33:43.425Z,100
2022-10-29T00:36:09.523Z,100
2022-10-29T00:38:35.640Z,100
2022-10-29T00:41:01.692Z,100
2022-10-29T00:43:27.824Z,100
2022-10-29T00:45:52.956Z,100
2022-10-29T00:48:19.020Z,100
2022-10-29T00:50:45.108Z,100
2022-10-29T00:53:11.194Z,100
2022-10-29T00:55:37.310Z,100
2022-10-29T00:58:03.388Z,100
2022-10-29T01:00:29.513Z,100
2022-10-29T01:02:55.564Z,100
2022-10-29T01:05:21.674Z,100
2022-10-29T01:07:47.755Z,100
2022-10-29T01:10:13.850Z,100
2022-10-29T01:12:39.956Z,100
2022-10-29T01:15:06.040Z,100
2022-10-29T01:17:31.204Z,100
2022-10-29T01:19:57.249Z,100
2022-10-29T01:22:23.343Z,100
2022-10-29T01:24:49.449Z,100
2022-10-29T01:27:15.533Z,100
2022-10-29T01:29:41.651Z,100
2022-10-29T01:32:07.745Z,100
2022-10-29T01:34:33.851Z,100
2022-10-29T01:36:59.904Z,100
2022-10-29T01:39:26.056Z,100
2022-10-29T01:41:52.102Z,100
2022-10-29T01:44:18.256Z,100
2022-10-29T01:46:44.298Z,100
2022-10-29T01:49:09.403Z,100
2022-10-29T01:51:35.541Z,100
2022-10-29T01:54:01.591Z,100
2022-10-29T01:58:53.794Z,100
2022-10-29T02:01:19.995Z,100
2022-10-29T02:03:45.983Z,100
2022-10-29T02:06:12.091Z,100
2022-10-29T02:08:38.193Z,100
2022-10-29T02:11:04.287Z,100
2022-10-29T02:13:30.392Z,100
2022-10-29T02:15:56.460Z,100
2022-10-29T02:18:22.595Z,100
2022-10-29T02:20:47.684Z,100
2022-10-29T02:23:13.759Z,100
2022-10-29T02:25:39.879Z,100
2022-10-29T02:28:05.944Z,100
2022-10-29T02:30:32.079Z,100
2022-10-29T02:32:58.141Z,100
2022-10-29T02:35:24.286Z,100
2022-10-29T02:37:50.334Z,100
2022-10-29T02:40:16.496Z,100
2022-10-29T02:42:42.528Z,100
2022-10-29T02:45:08.621Z,100
2022-10-29T02:47:34.743Z,100
2022-10-29T02:50:00.817Z,100
2022-10-29T02:52:25.967Z,100
2022-10-29T02:54:52.025Z,100
2022-10-29T02:57:18.175Z,100
2022-10-29T02:59:44.212Z,100
2022-10-29T03:02:10.300Z,100
2022-10-29T03:04:36.412Z,100
2022-10-29T03:07:02.497Z,100
2022-10-29T03:09:28.665Z,100
2022-10-29T03:11:54.687Z,100
2022-10-29T03:14:20.821Z,100
2022-10-29T03:16:46.873Z,100
2022-10-29T03:19:13.031Z,100
2022-10-29T03:21:39.072Z,100
2022-10-29T03:24:04.180Z,100
2022-10-29T03:26:30.301Z,100
2022-10-29T03:28:56.368Z,100
2022-10-29T03:31:22.570Z,100
2022-10-29T03:33:48.568Z,100
2022-10-29T03:36:14.771Z,100
2022-10-29T03:38:40.754Z,100
2022-10-29T03:41:06.852Z,100
2022-10-29T03:43:32.951Z,100
2022-10-29T03:45:59.094Z,100
2022-10-29T03:48:25.153Z,100
2022-10-29T03:50:51.228Z,100
2022-10-29T03:53:17.373Z,100
2022-10-29T03:55:42.437Z,100
2022-10-29T03:58:08.518Z,100
2022-10-29T04:00:34.696Z,100
2022-10-29T04:03:00.709Z,100
2022-10-29T04:05:26.848Z,100
2022-10-29T04:07:52.903Z,100
2022-10-29T04:10:19.049Z,100
2022-10-29T04:12:45.098Z,100
2022-10-29T04:15:11.267Z,100
2022-10-29T04:17:37.294Z,100
2022-10-29T04:20:03.373Z,100
2022-10-29T04:22:29.493Z,100
2022-10-29T04:24:55.582Z,100
2022-10-29T04:27:20.735Z,100
2022-10-29T04:29:46.788Z,100
2022-10-29T04:32:12.887Z,100
2022-10-29T04:34:38.984Z,100
2022-10-29T04:37:05.137Z,100
2022-10-29T04:39:31.173Z,100
2022-10-29T04:41:57.261Z,100
2022-10-29T04:44:23.391Z,100
2022-10-29T04:46:49.469Z,100
2022-10-29T04:49:15.641Z,100
2022-10-29T04:51:41.702Z,100
2022-10-29T04:54:07.790Z,100
2022-10-29T04:56:33.837Z,100
2022-10-29T04:58:58.988Z,100
2022-10-29T05:01:25.087Z,100
2022-10-29T05:03:51.147Z,100
2022-10-29T05:06:17.270Z,100
2022-10-29T05:08:43.326Z,100
2022-10-29T05:11:09.473Z,100
2022-10-29T05:13:35.569Z,100
2022-10-29T05:16:01.618Z,100
2022-10-29T05:18:27.729Z,100
2022-10-29T05:20:53.805Z,100
2022-10-29T05:23:19.918Z,100
2022-10-29T05:25:46.014Z,100
2022-10-29T05:28:12.159Z,100
2022-10-29T05:30:37.218Z,100
2022-10-29T05:33:03.305Z,100
2022-10-29T05:35:29.412Z,100
2022-10-29T05:37:55.494Z,100
2022-10-29T05:40:21.612Z,100
2022-10-29T05:42:47.683Z,100
2022-10-29T05:45:13.810Z,100
2022-10-29T05:47:39.922Z,100
2022-10-29T05:50:06.006Z,100
2022-10-29T05:52:32.068Z,100
2022-10-29T05:54:58.237Z,100
2022-10-29T05:57:24.259Z,100
2022-10-29T05:59:50.345Z,100
2022-10-29T06:02:15.498Z,100
2022-10-29T06:04:41.554Z,100
2022-10-29T06:07:07.700Z,100
2022-10-29T06:09:33.748Z,100
2022-10-29T06:11:59.906Z,100
2022-10-29T06:14:25.945Z,100
2022-10-29T06:16:52.025Z,100
2022-10-29T06:19:18.161Z,100
2022-10-29T06:21:44.239Z,100
2022-10-29T06:24:10.353Z,100
2022-10-29T06:26:36.461Z,100
2022-10-29T06:29:02.594Z,100
2022-10-29T06:31:28.610Z,100
2022-10-29T06:33:53.729Z,100
2022-10-29T06:36:19.842Z,100
2022-10-29T06:38:45.910Z,100
2022-10-29T06:41:12.043Z,100
2022-10-29T06:43:38.118Z,100
2022-10-29T06:46:04.243Z,100
2022-10-29T06:48:30.287Z,100
2022-10-29T06:50:56.451Z,100
2022-10-29T06:53:22.488Z,100
2022-10-29T06:55:48.649Z,100
2022-10-29T06:58:14.686Z,100
2022-10-29T07:00:40.776Z,100
2022-10-29T07:03:06.944Z,100
2022-10-29T07:05:31.991Z,100
2022-10-29T07:07:58.145Z,100
2022-10-29T07:10:24.189Z,100
2022-10-29T07:12:50.263Z,100
2022-10-29T07:15:16.373Z,100
2022-10-29T07:17:42.465Z,100
2022-10-29T07:20:07.627Z,100
2022-10-29T07:22:33.664Z,100
2022-10-29T07:24:59.817Z,100
2022-10-29T07:27:25.860Z,100
2022-10-29T07:29:51.952Z,100
2022-10-29T07:32:18.134Z,100
2022-10-29T07:34:44.198Z,100
2022-10-29T07:37:10.315Z,100
2022-10-29T07:39:36.340Z,100
2022-10-29T07:42:02.523Z,100
2022-10-29T07:44:28.543Z,100
2022-10-29T07:46:54.668Z,100
2022-10-29T07:49:20.735Z,100
2022-10-29T07:51:45.875Z,100
2022-10-29T07:54:11.949Z,100
2022-10-29T07:56:38.056Z,100
2022-10-29T07:59:04.154Z,100
2022-10-29T08:01:30.226Z,100
2022-10-29T08:03:56.356Z,100
2022-10-29T08:06:22.422Z,100
2022-10-29T08:08:48.594Z,100
2022-10-29T08:11:14.680Z,100
2022-10-29T08:13:40.680Z,100
2022-10-29T08:16:06.808Z,100
2022-10-29T08:18:32.881Z,100
2022-10-29T08:20:59.028Z,100
2022-10-29T08:23:24.103Z,100
2022-10-29T08:25:50.257Z,100
2022-10-29T08:28:16.290Z,100
2022-10-29T08:30:42.394Z,100
2022-10-29T08:33:08.517Z,100
2022-10-29T08:35:34.568Z,100
2022-10-29T08:38:00.707Z,100
2022-10-29T08:40:26.750Z,100
2022-10-29T08:42:52.897Z,100
2022-10-29T08:45:18.999Z,100
2022-10-29T08:47:45.112Z,100
2022-10-29T08:50:11.178Z,100
2022-10-29T08:52:37.335Z,100
2022-10-29T08:55:02.398Z,99.7
2022-10-29T08:57:28.449Z,99.4
2022-10-29T08:59:54.584Z,99.2
2022-10-29T09:02:20.651Z,99.3
2022-10-29T09:04:46.796Z,98.7
2022-10-29T09:07:12.830Z,98.2
2022-10-29T09:09:38.916Z,98.3
2022-10-29T09:12:05.024Z,98.1
2022-10-29T09:14:31.144Z,98.1
2022-10-29T09:16:57.231Z,98.3
2022-10-29T09:19:23.301Z,98.2
2022-10-29T09:21:49.433Z,97.3
2022-10-29T09:24:15.491Z,95.6
2022-10-29T09:26:40.604Z,95
2022-10-29T09:29:06.715Z,95.1
2022-10-29T09:31:32.820Z,95.6
2022-10-29T09:33:58.919Z,95.4
2022-10-29T09:36:25.004Z,94.9
2022-10-29T09:38:51.118Z,95.2
2022-10-29T09:41:17.215Z,95.8
2022-10-29T09:43:43.326Z,94.8
2022-10-29T09:46:09.376Z,95.4
2022-10-29T09:48:35.466Z,95.3
2022-10-29T09:51:01.587Z,94.9
2022-10-29T09:53:27.645Z,95.5
2022-10-29T09:55:53.775Z,95.7
2022-10-29T09:58:18.861Z,96.4
2022-10-29T10:00:44.950Z,96
2022-10-29T10:03:11.051Z,95.9
2022-10-29T10:05:37.142Z,96.2
2022-10-29T10:08:03.258Z,96.1
2022-10-29T10:10:29.331Z,96.2
2022-10-29T10:12:55.457Z,94.3
2022-10-29T10:15:21.516Z,94.2
2022-10-29T10:17:47.695Z,94.7
2022-10-29T10:20:13.705Z,94.7
2022-10-29T10:22:39.794Z,94.9
2022-10-29T10:25:05.943Z,95.8
2022-10-29T10:27:32.000Z,93.5
2022-10-29T10:29:57.186Z,93.6
2022-10-29T10:32:23.186Z,93.5
2022-10-29T10:34:49.416Z,93.2
2022-10-29T10:37:15.416Z,93.5
2022-10-29T10:39:41.502Z,91.9
2022-10-29T10:42:07.589Z,90.6
2022-10-29T10:44:33.703Z,92.4
2022-10-29T10:46:59.802Z,88.2
2022-10-29T10:49:25.915Z,89.4
2022-10-29T10:51:52.004Z,89.3
2022-10-29T10:54:18.053Z,87.9
2022-10-29T10:56:44.198Z,89.4
2022-10-29T10:59:10.237Z,90.4
2022-10-29T11:01:35.361Z,88.5
2022-10-29T11:04:01.497Z,89.2
2022-10-29T11:06:27.549Z,90.1
2022-10-29T11:08:53.690Z,90.2
2022-10-29T11:11:19.739Z,87.9
2022-10-29T11:13:45.910Z,89
2022-10-29T11:16:11.930Z,88.3
2022-10-29T11:18:38.032Z,88.2
2022-10-29T11:21:04.138Z,88.8
2022-10-29T11:23:30.255Z,87.5
2022-10-29T11:25:56.335Z,86.9
2022-10-29T11:28:22.413Z,88.8
2022-10-29T11:30:48.537Z,89.5
2022-10-29T11:33:13.618Z,87.3
2022-10-29T11:35:39.710Z,86
2022-10-29T11:38:05.822Z,87.9
2022-10-29T11:40:31.890Z,88.6
2022-10-29T11:42:58.025Z,89.9
2022-10-29T11:45:24.085Z,87.2
2022-10-29T11:47:50.222Z,83.6
2022-10-29T11:50:16.287Z,86.1
2022-10-29T11:52:42.511Z,85.1
2022-10-29T11:55:08.469Z,87.6
2022-10-29T11:57:34.549Z,86.6
2022-10-29T12:00:00.672Z,84.8
2022-10-29T12:02:26.759Z,85
2022-10-29T12:04:51.917Z,84.4
2022-10-29T12:07:17.963Z,84.2
2022-10-29T12:09:44.050Z,88.4
2022-10-29T12:12:10.154Z,86.1
2022-10-29T12:14:36.264Z,85.3
2022-10-29T12:17:02.353Z,86.3
2022-10-29T12:19:28.436Z,86.7
2022-10-29T12:21:54.563Z,84.7
2022-10-29T12:24:20.624Z,83.8
2022-10-29T12:26:46.766Z,84.6
2022-10-29T12:29:12.853Z,83.8
2022-10-29T12:31:38.986Z,85.5
2022-10-29T12:34:05.010Z,81.1
2022-10-29T12:36:30.112Z,83.8
2022-10-29T12:38:56.292Z,84.5
2022-10-29T12:41:22.330Z,84.2
2022-10-29T12:43:48.454Z,82.1
2022-10-29T12:46:14.510Z,82.1
2022-10-29T12:48:40.649Z,81.5
2022-10-29T12:51:06.699Z,83.3
2022-10-29T12:53:32.792Z,83.7
2022-10-29T12:55:58.891Z,80.8
2022-10-29T12:58:24.968Z,81.8
2022-10-29T13:00:51.102Z,85.1
2022-10-29T13:03:17.173Z,82.8
2022-10-29T13:05:43.343Z,83.8
2022-10-29T13:08:08.409Z,81.3
2022-10-29T13:10:34.478Z,84
2022-10-29T13:13:00.629Z,84.1
2022-10-29T13:15:26.653Z,85.6
2022-10-29T13:17:52.808Z,85.5
2022-10-29T13:20:18.850Z,87.4
2022-10-29T13:22:44.998Z,88.6
2022-10-29T13:25:11.061Z,89.7
2022-10-29T13:27:37.187Z,88.8
2022-10-29T13:30:03.245Z,86.8
2022-10-29T13:32:29.330Z,88.4
2022-10-29T13:34:55.438Z,88.3
2022-10-29T13:37:21.510Z,88.9
2022-10-29T13:39:46.658Z,87.6
2022-10-29T13:42:12.771Z,87.8
2022-10-29T13:44:38.875Z,89.7
2022-10-29T13:47:04.940Z,89.3
2022-10-29T13:49:31.000Z,89.4
2022-10-29T13:51:57.132Z,89.3
2022-10-29T13:54:23.201Z,90
2022-10-29T13:56:49.330Z,89.8
2022-10-29T13:59:15.428Z,90.7
2022-10-29T14:01:41.522Z,91.5
2022-10-29T14:04:07.638Z,91.7
2022-10-29T14:06:33.734Z,92.1
2022-10-29T14:08:59.792Z,92
2022-10-29T14:11:24.893Z,91
2022-10-29T14:13:51.020Z,92.1
2022-10-29T14:16:17.101Z,92.6
2022-10-29T14:18:43.236Z,91.8
2022-10-29T14:21:09.279Z,91.8
2022-10-29T14:23:35.475Z,92.2
2022-10-29T14:26:01.460Z,92.4
2022-10-29T14:28:27.563Z,92.3
2022-10-29T14:30:53.671Z,92.1
2022-10-29T14:33:19.757Z,92.2
2022-10-29T14:35:45.860Z,93.1
2022-10-29T14:38:11.941Z,93.8
2022-10-29T14:40:38.063Z,93.4
2022-10-29T14:43:03.148Z,94
2022-10-29T14:45:29.254Z,93.8
2022-10-29T14:47:55.378Z,94
2022-10-29T14:50:21.432Z,94.2
2022-10-29T14:52:47.611Z,94.2
2022-10-29T14:55:13.681Z,94.2
2022-10-29T14:57:39.755Z,94.7
2022-10-29T15:00:05.805Z,95.2
2022-10-29T15:02:31.955Z,95.4
2022-10-29T15:04:58.041Z,96.3
2022-10-29T15:07:24.086Z,96.3
2022-10-29T15:09:50.238Z,96.5
2022-10-29T15:12:16.304Z,97
2022-10-29T15:14:41.459Z,97
2022-10-29T15:17:07.501Z,97.3
2022-10-29T15:19:33.644Z,97.8
2022-10-29T15:21:59.705Z,97.8
2022-10-29T15:24:25.795Z,97.9
2022-10-29T15:26:51.887Z,97.8
2022-10-29T15:29:17.033Z,98.3
2022-10-29T15:31:43.138Z,98.8
2022-10-29T15:34:09.213Z,98.9
2022-10-29T15:36:35.269Z,98.9
2022-10-29T15:39:01.405Z,99.3
2022-10-29T15:41:27.464Z,99.8
2022-10-29T15:43:53.580Z,100
2022-10-29T15:46:19.647Z,100
2022-10-29T15:48:45.782Z,100
2022-10-29T15:51:11.850Z,100
2022-10-29T15:53:38.048Z,100
2022-10-29T15:56:04.025Z,100
2022-10-29T15:58:30.186Z,100
2022-10-29T16:00:55.272Z,100
2022-10-29T16:03:21.334Z,100
2022-10-29T16:05:47.481Z,100
2022-10-29T16:08:13.521Z,100
2022-10-29T16:10:39.666Z,100
2022-10-29T16:13:05.735Z,100
2022-10-29T16:15:31.800Z,100
2022-10-29T16:17:57.915Z,100
2022-10-29T16:20:23.990Z,100
2022-10-29T16:22:50.118Z,100
2022-10-29T16:25:16.174Z,100
2022-10-29T16:27:42.320Z,100
2022-10-29T16:30:08.373Z,100
2022-10-29T16:32:33.485Z,100
2022-10-29T16:34:59.599Z,100
2022-10-29T16:37:25.682Z,100
2022-10-29T16:39:51.812Z,100
2022-10-29T16:42:17.863Z,100
2022-10-29T16:44:43.997Z,100
2022-10-29T16:47:10.055Z,100
2022-10-29T16:49:36.207Z,100
2022-10-29T16:52:02.259Z,100
2022-10-29T16:54:28.410Z,100
2022-10-29T16:56:54.456Z,100
2022-10-29T16:59:20.541Z,100
2022-10-29T17:01:46.676Z,100
2022-10-29T17:04:11.763Z,100
2022-10-29T17:06:37.896Z,100
2022-10-29T17:09:03.954Z,100
2022-10-29T17:11:30.101Z,100
2022-10-29T17:13:56.138Z,100
2022-10-29T17:16:22.214Z,100
2022-10-29T17:18:48.346Z,100
2022-10-29T17:21:14.415Z,100
2022-10-29T17:23:40.576Z,100
2022-10-29T17:26:06.600Z,100
2022-10-29T17:28:32.746Z,100
2022-10-29T17:30:58.795Z,100
2022-10-29T17:33:24.885Z,100
2022-10-29T17:35:50.029Z,100
2022-10-29T17:38:16.112Z,100
2022-10-29T17:40:42.230Z,100
2022-10-29T17:43:08.324Z,100
2022-10-29T17:45:34.434Z,100
2022-10-29T17:48:00.534Z,100
2022-10-29T17:50:26.634Z,100
2022-10-29T17:52:52.679Z,100
2022-10-29T17:55:18.758Z,100
2022-10-29T17:57:44.875Z,100
2022-10-29T18:00:10.950Z,100
2022-10-29T18:02:37.082Z,100
2022-10-29T18:05:03.140Z,100
2022-10-29T18:07:28.371Z,100
2022-10-29T18:09:54.361Z,100
2022-10-29T18:12:20.500Z,100
2022-10-29T18:14:46.566Z,100
2022-10-29T18:17:12.614Z,100
2022-10-29T18:19:38.768Z,100
2022-10-29T18:22:04.836Z,100
2022-10-29T18:24:30.976Z,100
2022-10-29T18:26:57.061Z,100
2022-10-29T18:29:23.115Z,100
2022-10-29T18:31:49.220Z,100
2022-10-29T18:34:15.312Z,100
2022-10-29T18:36:41.419Z,100
2022-10-29T18:39:06.498Z,100
2022-10-29T18:41:32.657Z,100
2022-10-29T18:43:58.721Z,100
2022-10-29T18:46:24.814Z,100
2022-10-29T18:48:50.906Z,100
2022-10-29T18:51:16.987Z,100
2022-10-29T18:53:43.150Z,100
2022-10-29T18:56:09.181Z,100
2022-10-29T18:58:35.304Z,100
2022-10-29T19:01:01.362Z,100
2022-10-29T19:03:27.533Z,100
2022-10-29T19:05:53.555Z,100
2022-10-29T19:08:19.650Z,100
2022-10-29T19:10:44.786Z,100
2022-10-29T19:13:10.885Z,100
2022-10-29T19:15:36.996Z,100
2022-10-29T19:18:03.049Z,100
2022-10-29T19:20:29.196Z,100
2022-10-29T19:22:55.238Z,100
2022-10-29T19:25:21.437Z,100
2022-10-29T19:27:47.453Z,100
2022-10-29T19:30:13.531Z,100
2022-10-29T19:32:39.646Z,100
2022-10-29T19:35:05.715Z,100
2022-10-29T19:37:31.848Z,100
2022-10-29T19:39:57.957Z,100
2022-10-29T19:42:23.092Z,100
2022-10-29T19:44:49.158Z,100
2022-10-29T19:47:15.216Z,100
2022-10-29T19:49:41.332Z,100
2022-10-29T19:52:07.421Z,100
2022-10-29T19:54:33.537Z,100
2022-10-29T19:56:59.698Z,100
2022-10-29T19:59:25.819Z,100
2022-10-29T20:01:51.795Z,100
2022-10-29T20:04:18.033Z,100
2022-10-29T20:06:44.005Z,100
2022-10-29T20:09:10.156Z,100
2022-10-29T20:11:36.186Z,100
2022-10-29T20:14:01.289Z,100
2022-10-29T20:16:27.420Z,100
2022-10-29T20:18:53.544Z,100
2022-10-29T20:21:19.652Z,100
2022-10-29T20:23:45.676Z,100
2022-10-29T20:26:11.858Z,100
2022-10-29T20:28:37.879Z,100
2022-10-29T20:31:04.024Z,100
2022-10-29T20:33:30.074Z,100
2022-10-29T20:35:56.164Z,100
2022-10-29T20:38:22.267Z,100
2022-10-29T20:40:48.343Z,100
2022-10-29T20:43:14.475Z,100
2022-10-29T20:45:39.562Z,100
2022-10-29T20:48:05.633Z,100
2022-10-29T20:50:31.762Z,100
2022-10-29T20:52:57.831Z,100
2022-10-29T20:55:23.959Z,100
2022-10-29T20:57:50.046Z,100
2022-10-29T21:00:16.166Z,100
2022-10-29T21:02:42.213Z,100
2022-10-29T21:05:08.363Z,100
2022-10-29T21:07:34.445Z,100
2022-10-29T21:10:00.608Z,100
2022-10-29T21:12:26.647Z,100
2022-10-29T21:14:52.696Z,100
2022-10-29T21:17:17.859Z,100
2022-10-29T21:19:43.960Z,100
2022-10-29T21:22:10.106Z,100
2022-10-29T21:24:36.123Z,100
2022-10-29T21:27:02.213Z,100
2022-10-29T21:29:28.296Z,100
2022-10-29T21:31:54.381Z,100
2022-10-29T21:34:20.585Z,100
2022-10-29T21:36:46.563Z,100
2022-10-29T21:39:12.704Z,100
2022-10-29T21:41:38.786Z,100
2022-10-29T21:44:04.908Z,100
2022-10-29T21:46:31.009Z,100
2022-10-29T21:48:56.063Z,100
2022-10-29T21:51:22.184Z,100
2022-10-29T21:53:48.249Z,100
2022-10-29T21:56:14.433Z,100
2022-10-29T21:58:40.448Z,100
2022-10-29T22:01:06.603Z,100
2022-10-29T22:03:32.641Z,100
2022-10-29T22:05:58.799Z,100
2022-10-29T22:08:24.858Z,100
2022-10-29T22:10:50.932Z,100
2022-10-29T22:13:17.042Z,100
2022-10-29T22:15:43.118Z,100
2022-10-29T22:18:09.258Z,100
2022-10-29T22:20:34.379Z,100
2022-10-29T22:23:00.482Z,100
2022-10-29T22:25:26.540Z,100
2022-10-29T22:27:52.629Z,100
2022-10-29T22:30:18.754Z,100
2022-10-29T22:32:44.845Z,100
2022-10-29T22:35:10.933Z,100
2022-10-29T22:37:36.992Z,100
2022-10-29T22:40:03.141Z,100
2022-10-29T22:42:29.179Z,100
2022-10-29T22:44:55.332Z,100
2022-10-29T22:47:21.382Z,100
2022-10-29T22:49:47.471Z,100
2022-10-29T22:52:12.617Z,100
2022-10-29T22:54:38.703Z,100
2022-10-29T22:57:04.819Z,100
2022-10-29T22:59:30.874Z,100
2022-10-29T23:01:56.991Z,100
2022-10-29T23:04:23.065Z,100
2022-10-29T23:06:49.160Z,100
2022-10-29T23:09:15.268Z,100
2022-10-29T23:11:41.355Z,100
2022-10-29T23:14:07.474Z,100
2022-10-29T23:16:33.546Z,100
2022-10-29T23:18:59.669Z,100
2022-10-29T23:21:25.737Z,100
2022-10-29T23:23:50.839Z,100
2022-10-29T23:26:16.954Z,100
2022-10-29T23:28:43.027Z,100
2022-10-29T23:31:09.175Z,100
2022-10-29T23:33:35.227Z,100
2022-10-29T23:36:01.365Z,100
2022-10-29T23:38:26.441Z,100
2022-10-29T23:40:52.523Z,100
2022-10-29T23:43:18.647Z,100
2022-10-29T23:45:44.707Z,100
2022-10-29T23:48:10.849Z,100
2022-10-29T23:50:36.910Z,100
2022-10-29T23:53:03.049Z,100
2022-10-29T23:55:29.101Z,100
2022-10-29T23:57:55.246Z,100
